createdAt,value
2022-11-15T00:03:57.437Z,87.18
2022-11-15T00:09:01.186Z,86.97
2022-11-15T00:14:06.250Z,87.21
2022-11-15T00:19:08.818Z,87.28
2022-11-15T00:24:11.490Z,87.08
2022-11-15T00:29:14.108Z,87.07
2022-11-15T00:34:16.648Z,87.09
2022-11-15T00:39:21.688Z,87.41
2022-11-15T00:44:24.248Z,87.45
2022-11-15T00:49:26.871Z,87.28
2022-11-15T00:54:29.657Z,87.06
2022-11-15T00:59:32.304Z,87.13
2022-11-15T01:04:34.940Z,87.07
2022-11-15T01:09:37.639Z,87.24
2022-11-15T01:14:40.356Z,87.46
2022-11-15T01:19:43.012Z,87.35
2022-11-15T01:24:45.771Z,87.48
2022-11-15T01:29:48.556Z,87.13
2022-11-15T01:34:51.157Z,87.29
2022-11-15T01:39:53.798Z,87.31
2022-11-15T01:44:56.519Z,87.27
2022-11-15T01:50:01.558Z,87.19
2022-11-15T01:55:07.311Z,87.35
2022-11-15T02:00:10.714Z,87.40
2022-11-15T02:05:13.451Z,87.50
2022-11-15T02:10:21.352Z,87.46
2022-11-15T02:15:33.553Z,87.43
2022-11-15T02:20:39.072Z,87.83
2022-11-15T02:25:46.891Z,87.55
2022-11-15T02:30:53.981Z,87.46
2022-11-15T02:36:04.121Z,87.65
2022-11-15T02:41:14.154Z,88.23
2022-11-15T02:46:23.393Z,87.87
2022-11-15T02:51:26.055Z,87.90
2022-11-15T02:56:28.717Z,87.81
2022-11-15T03:01:36.257Z,87.60
2022-11-15T03:06:42.806Z,87.38
2022-11-15T03:11:51.596Z,87.57
2022-11-15T03:16:56.514Z,87.74
2022-11-15T03:22:03.727Z,88.00
2022-11-15T03:27:10.838Z,87.99
2022-11-15T03:32:21.657Z,87.86
2022-11-15T03:37:31.634Z,88.12
2022-11-15T03:42:42.787Z,87.66
2022-11-15T03:48:00.650Z,88.29
2022-11-15T03:53:03.487Z,88.62
2022-11-15T03:58:06.191Z,88.89
2022-11-15T04:03:45.458Z,88.59
2022-11-15T04:08:48.116Z,88.51
2022-11-15T04:13:50.785Z,88.43
2022-11-15T04:19:13.371Z,88.60
2022-11-15T04:24:16.154Z,88.63
2022-11-15T04:29:21.919Z,88.73
2022-11-15T04:34:24.515Z,88.94
2022-11-15T04:39:27.158Z,89.19
2022-11-15T04:44:29.857Z,88.99
2022-11-15T04:49:32.606Z,88.94
2022-11-15T04:54:35.164Z,88.83
2022-11-15T04:59:37.764Z,88.94
2022-11-15T05:04:40.362Z,88.90
2022-11-15T05:09:42.965Z,89.26
2022-11-15T05:14:45.520Z,89.77
2022-11-15T05:19:48.077Z,89.77
2022-11-15T05:24:50.791Z,89.61
2022-11-15T05:29:55.708Z,89.86
2022-11-15T05:34:58.309Z,89.90
2022-11-15T05:40:01.055Z,90.20
2022-11-15T05:45:07.296Z,90.02
2022-11-15T05:50:13.704Z,89.99
2022-11-15T05:55:16.650Z,90.26
2022-11-15T06:00:19.559Z,90.25
2022-11-15T06:05:22.369Z,90.32
2022-11-15T06:10:25.145Z,89.73
2022-11-15T06:15:28.135Z,90.55
2022-11-15T06:20:30.780Z,91.02
2022-11-15T06:25:33.403Z,91.07
2022-11-15T06:30:36.164Z,90.92
2022-11-15T06:35:39.006Z,91.03
2022-11-15T06:40:41.638Z,91.16
2022-11-15T06:45:44.278Z,90.95
2022-11-15T06:50:51.520Z,91.12
2022-11-15T06:55:55.698Z,90.94
2022-11-15T07:01:04.878Z,90.81
2022-11-15T07:06:08.689Z,90.56
2022-11-15T07:11:11.341Z,90.86
2022-11-15T07:16:13.948Z,91.01
2022-11-15T07:21:16.576Z,90.95
2022-11-15T07:26:19.313Z,90.47
2022-11-15T07:31:22.071Z,90.40
2022-11-15T07:36:24.602Z,91.18
2022-11-15T07:41:27.159Z,91.08
2022-11-15T07:46:29.736Z,91.00
2022-11-15T07:51:32.357Z,91.01
2022-11-15T07:56:34.895Z,90.77
2022-11-15T08:01:37.608Z,90.00
2022-11-15T08:06:40.251Z,90.15
2022-11-15T08:11:42.804Z,90.60
2022-11-15T08:16:45.331Z,90.41
2022-11-15T08:21:48.090Z,91.04
2022-11-15T08:26:50.694Z,91.34
2022-11-15T08:31:56.802Z,90.84
2022-11-15T08:36:59.316Z,91.09
2022-11-15T08:42:02.065Z,91.13
2022-11-15T08:47:04.733Z,90.61
2022-11-15T08:52:07.276Z,89.61
2022-11-15T08:57:10.467Z,89.39
2022-11-15T09:02:15.598Z,89.56
2022-11-15T09:07:18.699Z,89.20
2022-11-15T09:12:22.246Z,89.27
2022-11-15T09:17:25.375Z,89.21
2022-11-15T09:22:27.921Z,89.58
2022-11-15T09:27:31.409Z,88.98
2022-11-15T09:32:39.074Z,88.98
2022-11-15T09:37:42.046Z,88.65
2022-11-15T09:42:48.491Z,88.94
2022-11-15T09:47:56.928Z,88.71
2022-11-15T09:53:00.083Z,89.53
2022-11-15T09:58:17.829Z,89.33
2022-11-15T10:03:42.874Z,88.77
2022-11-15T10:09:00.115Z,88.77
2022-11-15T10:14:23.060Z,88.66
2022-11-15T10:19:29.492Z,88.60
2022-11-15T10:24:38.026Z,88.43
2022-11-15T10:29:48.894Z,88.32
2022-11-15T10:34:53.748Z,88.62
2022-11-15T10:40:02.279Z,88.68
2022-11-15T10:45:24.669Z,88.93
2022-11-15T10:50:31.788Z,88.76
2022-11-15T10:55:36.138Z,88.46
2022-11-15T11:00:40.471Z,87.92
2022-11-15T11:05:43.349Z,88.32
2022-11-15T11:10:54.169Z,88.65
2022-11-15T11:16:04.466Z,89.71
2022-11-15T11:21:13.302Z,89.47
2022-11-15T11:26:25.055Z,89.14
2022-11-15T11:31:33.551Z,89.35
2022-11-15T11:36:46.635Z,89.19
2022-11-15T11:41:56.376Z,89.19
2022-11-15T11:47:02.667Z,89.94
2022-11-15T11:52:09.114Z,89.87
2022-11-15T11:57:21.773Z,89.88
2022-11-15T12:02:30.501Z,90.02
2022-11-15T12:07:35.912Z,89.81
2022-11-15T12:12:48.374Z,89.90
2022-11-15T12:17:51.496Z,89.83
2022-11-15T12:22:59.133Z,89.41
2022-11-15T12:28:07.646Z,89.77
2022-11-15T12:33:29.849Z,90.31
2022-11-15T12:38:38.527Z,90.65
2022-11-15T12:43:43.376Z,90.70
2022-11-15T12:48:49.145Z,90.97
2022-11-15T12:53:51.797Z,90.75
2022-11-15T12:58:58.839Z,90.91
2022-11-15T13:04:07.222Z,90.72
2022-11-15T13:09:29.973Z,90.88
2022-11-15T13:14:40.726Z,90.46
2022-11-15T13:19:44.493Z,90.80
2022-11-15T13:24:47.251Z,91.04
2022-11-15T13:29:49.872Z,91.12
2022-11-15T13:34:54.258Z,91.13
2022-11-15T13:40:17.468Z,91.11
2022-11-15T13:45:21.186Z,91.30
2022-11-15T13:50:30.317Z,91.53
2022-11-15T13:55:33.968Z,91.47
2022-11-15T14:00:41.735Z,91.25
2022-11-15T14:05:47.556Z,91.46
2022-11-15T14:11:07.603Z,91.55
2022-11-15T14:16:16.590Z,91.88
2022-11-15T14:21:20.562Z,91.54
2022-11-15T14:26:29.000Z,91.51
2022-11-15T14:31:31.551Z,91.61
2022-11-15T14:36:34.098Z,91.68
2022-11-15T14:41:39.024Z,91.69
2022-11-15T14:46:41.572Z,91.81
2022-11-15T14:51:44.430Z,91.99
2022-11-15T14:56:46.977Z,91.93
2022-11-15T15:01:49.514Z,91.86
2022-11-15T15:06:52.197Z,92.24
2022-11-15T15:11:55.640Z,92.33
2022-11-15T15:16:58.200Z,92.36
2022-11-15T15:22:00.837Z,92.06
2022-11-15T15:27:03.463Z,92.31
2022-11-15T15:32:06.565Z,92.70
2022-11-15T15:37:20.072Z,92.64
2022-11-15T15:42:23.640Z,92.00
2022-11-15T15:47:26.545Z,92.21
2022-11-15T15:52:29.242Z,92.85
2022-11-15T15:57:31.782Z,93.03
2022-11-15T16:02:39.248Z,92.68
2022-11-15T16:07:47.240Z,92.07
2022-11-15T16:12:50.360Z,92.17
2022-11-15T16:17:55.997Z,92.55
2022-11-15T16:23:02.086Z,92.09
2022-11-15T16:28:17.265Z,91.70
2022-11-15T16:33:21.132Z,91.80
2022-11-15T16:38:23.905Z,91.85
2022-11-15T16:43:26.512Z,91.93
2022-11-15T16:48:29.230Z,91.68
2022-11-15T16:53:32.196Z,91.86
2022-11-15T16:58:37.328Z,92.66
2022-11-15T17:03:39.922Z,92.61
2022-11-15T17:08:42.814Z,92.19
2022-11-15T17:13:46.689Z,92.52
2022-11-15T17:18:51.582Z,92.65
2022-11-15T17:23:55.000Z,91.93
2022-11-15T17:28:57.755Z,92.30
2022-11-15T17:34:01.897Z,92.55
2022-11-15T17:39:05.004Z,92.54
2022-11-15T17:44:07.786Z,92.22
2022-11-15T17:49:10.391Z,92.04
2022-11-15T17:54:14.155Z,92.10
2022-11-15T17:59:21.182Z,92.47
2022-11-15T18:04:28.129Z,93.00
2022-11-15T18:09:30.693Z,93.04
2022-11-15T18:14:33.285Z,92.79
2022-11-15T18:19:36.397Z,93.10
2022-11-15T18:24:39.043Z,93.02
2022-11-15T18:29:41.632Z,92.78
2022-11-15T18:34:44.308Z,92.88
2022-11-15T18:39:52.571Z,92.82
2022-11-15T18:44:56.361Z,92.52
2022-11-15T18:49:59.601Z,92.48
2022-11-15T18:55:02.337Z,92.76
2022-11-15T19:00:05.493Z,93.02
2022-11-15T19:05:08.163Z,93.36
2022-11-15T19:10:11.875Z,93.52
2022-11-15T19:15:14.492Z,93.66
2022-11-15T19:20:17.204Z,93.93
2022-11-15T19:25:19.881Z,94.08
2022-11-15T19:30:22.442Z,93.92
2022-11-15T19:35:25.525Z,94.00
2022-11-15T19:40:28.255Z,93.70
2022-11-15T19:45:30.868Z,93.96
2022-11-15T19:50:36.681Z,93.73
2022-11-15T19:55:39.261Z,94.03
2022-11-15T20:00:42.126Z,93.40
2022-11-15T20:05:44.911Z,93.28
2022-11-15T20:10:48.756Z,93.32
2022-11-15T20:15:51.825Z,93.50
2022-11-15T20:20:58.430Z,93.57
2022-11-15T20:26:00.961Z,93.25
2022-11-15T20:31:03.736Z,93.26
2022-11-15T20:36:10.787Z,93.58
2022-11-15T20:41:14.499Z,93.76
2022-11-15T20:46:17.504Z,94.06
2022-11-15T20:51:20.611Z,93.93
2022-11-15T20:56:23.603Z,93.84
2022-11-15T21:01:27.683Z,93.87
2022-11-15T21:06:30.557Z,93.80
2022-11-15T21:11:36.051Z,93.74
2022-11-15T21:16:41.781Z,93.68
2022-11-15T21:21:44.413Z,93.89
2022-11-15T21:26:47.796Z,94.04
2022-11-15T21:31:53.716Z,93.27
2022-11-15T21:36:56.320Z,93.08
2022-11-15T21:41:59.053Z,93.02
2022-11-15T21:47:01.635Z,93.01
2022-11-15T21:52:04.293Z,92.78
2022-11-15T21:57:07.036Z,92.91
2022-11-15T22:02:12.575Z,92.64
2022-11-15T22:07:15.298Z,92.87
2022-11-15T22:12:18.039Z,92.80
2022-11-15T22:17:20.733Z,92.75
2022-11-15T22:22:23.404Z,92.60
2022-11-15T22:27:26.218Z,92.95
2022-11-15T22:32:28.852Z,93.26
2022-11-15T22:37:31.530Z,93.77
2022-11-15T22:42:34.236Z,94.12
2022-11-15T22:47:36.891Z,94.35
2022-11-15T22:52:39.635Z,94.37
2022-11-15T22:57:42.354Z,94.34
2022-11-15T23:02:45.187Z,94.40
2022-11-15T23:07:47.885Z,94.71
2022-11-15T23:12:53.467Z,94.78
2022-11-15T23:17:56.199Z,94.87
2022-11-15T23:22:59.521Z,95.07
2022-11-15T23:28:04.319Z,95.35
2022-11-15T23:33:10.063Z,95.59
2022-11-15T23:38:12.687Z,95.15
2022-11-15T23:43:15.376Z,95.24
2022-11-15T23:48:18.032Z,95.44
2022-11-15T23:53:20.907Z,95.01
2022-11-15T23:58:23.905Z,95.31
